Time;durP1;ratioP1;P1;durP2;ratioP2;P2;SDS_P1;SDS_P2;PMS_P1;PMS_P2;Temp;Humidity;BMP_temperature;BMP_pressure;BME280_temperature;BME280_humidity;BME280_pressure;Samples;Min_cycle;Max_cycle;Signal;HPM_P1;HPM_P2
2023/09/26 00:02:24;;;;;;;3.35;1.88;;;;;;;12.82;68.02;93392.84;2029546;70;20262;-73
2023/09/26 00:04:51;;;;;;;4.35;2.00;;;;;;;12.84;67.89;93403.56;2029619;70;20224;-73
2023/09/26 00:07:17;;;;;;;3.03;1.70;;;;;;;12.83;67.87;93394.34;2029616;70;20137;-73
2023/09/26 00:09:44;;;;;;;3.20;1.90;;;;;;;12.72;68.74;93392.94;2029645;70;20507;-72
2023/09/26 00:12:10;;;;;;;6.70;1.90;;;;;;;12.76;67.52;93389.63;2029503;70;20156;-72
2023/09/26 00:14:36;;;;;;;4.63;1.85;;;;;;;12.81;67.93;93390.63;2029767;70;20172;-72
2023/09/26 00:17:03;;;;;;;6.78;1.58;;;;;;;12.76;68.45;93394.56;2029486;70;20165;-72
2023/09/26 00:19:29;;;;;;;2.53;1.70;;;;;;;12.80;67.13;93389.16;2029166;70;20524;-73
2023/09/26 00:21:55;;;;;;;4.47;1.70;;;;;;;12.75;67.67;93391.00;2028721;70;20630;-73
2023/09/26 00:24:21;;;;;;;3.00;1.70;;;;;;;12.67;68.44;93388.38;2028549;70;20247;-72
2023/09/26 00:26:46;;;;;;;3.83;1.60;;;;;;;12.69;68.70;93393.41;2029009;70;20160;-72
2023/09/26 00:29:12;;;;;;;3.80;1.52;;;;;;;12.79;68.87;93394.06;2029178;70;20180;-72
2023/09/26 00:31:39;;;;;;;2.00;1.40;;;;;;;12.77;68.62;93382.63;2028950;70;20167;-73
2023/09/26 00:34:05;;;;;;;4.55;1.60;;;;;;;12.81;67.17;93390.63;2029240;70;20239;-73
2023/09/26 00:36:30;;;;;;;3.95;1.60;;;;;;;12.50;68.99;93373.81;2028946;70;20190;-73
2023/09/26 00:38:56;;;;;;;2.83;1.90;;;;;;;12.31;69.61;93386.75;2029475;70;20156;-73
2023/09/26 00:41:22;;;;;;;3.45;1.73;;;;;;;12.51;68.96;93390.19;2028618;70;20168;-73
2023/09/26 00:43:48;;;;;;;2.85;1.70;;;;;;;12.44;68.82;93386.22;2029299;70;20145;-73
2023/09/26 00:46:14;;;;;;;3.42;1.70;;;;;;;12.42;68.61;93374.78;2031295;70;20156;-74
2023/09/26 00:48:40;;;;;;;4.13;1.77;;;;;;;12.52;68.85;93391.66;2031422;70;20213;-73
2023/09/26 00:51:07;;;;;;;5.00;1.73;;;;;;;12.49;68.72;93392.13;2029147;70;20532;-73
2023/09/26 00:53:36;;;;;;;6.45;1.73;;;;;;;12.54;68.69;93391.75;2029233;70;20171;-72
2023/09/26 00:56:03;;;;;;;3.03;1.50;;;;;;;12.60;68.33;93399.88;2029384;70;20653;-73
2023/09/26 00:58:31;;;;;;;4.68;1.65;;;;;;;12.65;68.11;93398.81;2029244;70;20129;-72
2023/09/26 01:00:58;;;;;;;4.22;1.63;;;;;;;12.62;68.11;93392.28;2028773;70;20144;-72
2023/09/26 01:03:25;;;;;;;3.03;1.48;;;;;;;12.58;68.06;93394.84;2029355;70;20707;-72
2023/09/26 01:05:50;;;;;;;2.63;1.60;;;;;;;12.37;68.76;93389.22;2026203;70;20159;-72
2023/09/26 01:08:18;;;;;;;3.45;1.90;;;;;;;12.39;68.65;93397.84;2029365;70;20156;-72
2023/09/26 01:10:44;;;;;;;6.13;2.00;;;;;;;12.40;69.11;93388.75;2028241;70;20147;-72
2023/09/26 01:13:11;;;;;;;2.97;1.55;;;;;;;12.43;69.44;93398.13;2028904;70;20159;-72
2023/09/26 01:15:39;;;;;;;2.35;1.75;;;;;;;12.43;68.64;93393.22;2029277;70;20141;-71
2023/09/26 01:18:11;;;;;;;2.80;1.60;;;;;;;12.39;69.16;93386.56;2028964;70;20226;-72
2023/09/26 01:20:44;;;;;;;1.98;1.50;;;;;;;12.43;68.18;93381.91;2029246;70;20147;-73
2023/09/26 01:23:11;;;;;;;2.33;1.65;;;;;;;12.19;70.00;93394.44;2028982;70;20176;-73
2023/09/26 01:25:37;;;;;;;3.13;1.73;;;;;;;12.22;69.27;93387.56;2029045;70;20145;-73
2023/09/26 01:28:07;;;;;;;3.35;1.70;;;;;;;12.16;69.22;93381.53;2028733;70;20164;-74
2023/09/26 01:30:37;;;;;;;2.85;1.60;;;;;;;12.29;69.33;93392.28;2029003;70;20564;-74
2023/09/26 01:33:05;;;;;;;5.10;1.80;;;;;;;12.32;69.53;93390.31;2029121;70;20172;-73
2023/09/26 01:35:31;;;;;;;3.22;1.63;;;;;;;12.37;68.82;93386.41;2029211;70;20536;-73
2023/09/26 01:37:56;;;;;;;9.13;1.58;;;;;;;12.36;69.35;93388.50;2028602;70;20500;-73
2023/09/26 01:40:22;;;;;;;3.67;1.73;;;;;;;12.23;69.14;93383.41;2028191;70;20184;-73
2023/09/26 01:42:48;;;;;;;3.58;1.83;;;;;;;12.29;68.76;93368.97;2028657;70;20152;-73
2023/09/26 01:45:15;;;;;;;4.60;1.40;;;;;;;12.23;69.20;93377.75;2031534;70;20152;-74
2023/09/26 01:47:45;;;;;;;3.42;1.42;;;;;;;12.23;69.06;93380.56;2031656;70;20253;-73
2023/09/26 01:50:11;;;;;;;2.92;1.67;;;;;;;11.81;70.61;93373.56;2034152;70;20160;-72
2023/09/26 01:52:37;;;;;;;4.25;1.63;;;;;;;12.02;70.03;93377.78;2031765;70;20153;-72
2023/09/26 01:55:08;;;;;;;3.20;1.58;;;;;;;11.93;69.90;93368.78;2032294;70;20232;-73
2023/09/26 01:57:33;;;;;;;2.25;1.50;;;;;;;11.98;69.72;93377.50;2030258;70;20664;-73
2023/09/26 02:00:01;;;;;;;2.17;1.45;;;;;;;12.06;70.16;93380.88;2028628;70;20152;-72
2023/09/26 02:02:27;;;;;;;4.95;1.73;;;;;;;12.09;69.99;93380.38;2028345;70;20253;-72
2023/09/26 02:04:53;;;;;;;3.28;1.70;;;;;;;12.07;69.70;93368.25;2028793;70;20529;-72
2023/09/26 02:07:18;;;;;;;4.88;2.00;;;;;;;12.07;70.35;93377.44;2029005;70;20137;-72
2023/09/26 02:09:44;;;;;;;4.50;1.60;;;;;;;12.11;70.09;93383.34;2030983;70;20179;-75
2023/09/26 02:12:10;;;;;;;3.47;1.55;;;;;;;12.10;70.61;93378.31;2030860;70;20662;-73
2023/09/26 02:14:35;;;;;;;3.92;1.70;;;;;;;11.74;70.57;93371.69;2029325;70;20251;-73
2023/09/26 02:17:01;;;;;;;5.15;1.80;;;;;;;11.62;71.87;93377.25;2025751;70;20157;-72
2023/09/26 02:19:26;;;;;;;4.10;1.70;;;;;;;11.83;70.18;93378.66;2028541;70;20561;-72
2023/09/26 02:21:52;;;;;;;3.30;1.50;;;;;;;11.87;70.98;93368.38;2028629;70;20161;-72
2023/09/26 02:24:18;;;;;;;5.53;1.60;;;;;;;11.93;69.94;93373.69;2025939;70;20188;-72
2023/09/26 02:26:43;;;;;;;2.30;1.58;;;;;;;11.92;70.56;93375.03;2029266;70;20175;-72
2023/09/26 02:29:09;;;;;;;3.65;1.42;;;;;;;11.97;70.50;93382.41;2028592;70;20276;-72
2023/09/26 02:31:35;;;;;;;5.57;1.70;;;;;;;11.92;70.63;93375.75;2029443;70;20151;-72
2023/09/26 02:34:00;;;;;;;3.05;1.60;;;;;;;11.97;70.72;93371.13;2029015;70;20650;-73
2023/09/26 02:36:26;;;;;;;2.45;1.40;;;;;;;11.86;70.93;93366.88;2029329;70;20136;-73
2023/09/26 02:38:52;;;;;;;3.85;1.73;;;;;;;11.97;70.81;93373.94;2029900;70;20163;-73
2023/09/26 02:41:17;;;;;;;4.80;1.65;;;;;;;11.86;71.45;93374.59;2029474;70;20157;-72
2023/09/26 02:43:43;;;;;;;3.47;1.50;;;;;;;12.01;70.96;93379.88;2029786;70;20156;-73
2023/09/26 02:46:09;;;;;;;2.30;1.55;;;;;;;11.99;70.10;93364.88;2031736;70;20184;-73
2023/09/26 02:48:34;;;;;;;6.47;1.58;;;;;;;12.08;69.96;93367.63;2029343;70;20156;-73
2023/09/26 02:51:04;;;;;;;3.72;1.95;;;;;;;11.94;71.18;93373.06;2029689;70;20171;-74
2023/09/26 02:53:30;;;;;;;4.07;1.50;;;;;;;12.06;69.43;93375.97;2026445;71;20153;-73
2023/09/26 02:55:56;;;;;;;3.63;1.50;;;;;;;12.05;70.17;93368.84;2026678;70;20591;-73
2023/09/26 02:58:22;;;;;;;3.55;1.67;;;;;;;12.03;70.41;93368.69;2028370;70;20160;-73
2023/09/26 03:00:49;;;;;;;4.40;1.90;;;;;;;11.97;69.80;93368.31;2029363;70;20623;-73
2023/09/26 03:03:16;;;;;;;4.40;1.83;;;;;;;11.90;70.06;93361.50;2029254;70;20145;-72
2023/09/26 03:05:52;;;;;;;2.67;1.50;;;;;;;11.86;70.62;93369.69;2029838;70;20167;-73
2023/09/26 03:08:18;;;;;;;3.20;1.58;;;;;;;11.98;69.91;93357.75;2029165;70;20223;-72
2023/09/26 03:10:43;;;;;;;3.65;1.50;;;;;;;12.02;70.55;93358.75;2029544;70;20619;-73
2023/09/26 03:13:09;;;;;;;2.75;1.58;;;;;;;11.88;70.68;93357.81;2029803;70;20141;-73
2023/09/26 03:15:35;;;;;;;3.60;1.60;;;;;;;11.82;71.24;93354.56;2029773;70;20549;-73
2023/09/26 03:18:01;;;;;;;4.03;1.80;;;;;;;11.91;70.22;93360.19;2029136;70;20589;-73
2023/09/26 03:20:27;;;;;;;4.68;1.42;;;;;;;11.78;71.60;93363.50;2026612;70;20153;-74
2023/09/26 03:22:54;;;;;;;4.80;2.03;;;;;;;11.85;70.44;93364.66;2029914;70;20145;-73
2023/09/26 03:25:21;;;;;;;3.17;2.08;;;;;;;11.80;70.12;93355.16;2029193;70;20156;-73
2023/09/26 03:27:47;;;;;;;3.05;1.95;;;;;;;11.71;70.21;93353.16;2031273;70;20195;-73
2023/09/26 03:30:16;;;;;;;5.07;1.70;;;;;;;11.56;71.01;93354.28;2029923;70;20635;-73
2023/09/26 03:32:43;;;;;;;3.28;1.80;;;;;;;11.74;70.69;93356.84;2031845;70;20626;-73
2023/09/26 03:35:09;;;;;;;3.58;1.75;;;;;;;11.81;69.71;93351.00;2029373;70;20144;-74
2023/09/26 03:37:36;;;;;;;2.70;1.48;;;;;;;11.78;70.12;93354.31;2029438;70;20192;-75
2023/09/26 03:40:03;;;;;;;3.50;1.73;;;;;;;11.75;71.21;93352.69;2029793;70;20273;-73
2023/09/26 03:42:29;;;;;;;3.13;1.67;;;;;;;11.82;69.44;93354.56;2029112;70;20232;-73
2023/09/26 03:44:54;;;;;;;3.75;1.70;;;;;;;11.75;69.94;93349.88;2029627;70;20595;-73
2023/09/26 03:47:21;;;;;;;2.40;1.70;;;;;;;11.63;70.14;93349.78;2029725;70;20133;-73
2023/09/26 03:49:51;;;;;;;2.90;1.80;;;;;;;11.66;70.99;93354.22;2029840;70;20145;-72
2023/09/26 03:52:17;;;;;;;4.32;1.83;;;;;;;11.71;70.58;93356.72;2029132;70;20152;-73
2023/09/26 03:54:42;;;;;;;6.57;1.95;;;;;;;11.75;70.76;93355.50;2029180;70;20206;-73
2023/09/26 03:57:08;;;;;;;3.15;1.63;;;;;;;11.77;70.39;93358.44;2029760;70;20145;-73
2023/09/26 03:59:34;;;;;;;5.03;2.10;;;;;;;11.70;71.05;93366.50;2029384;70;20186;-73
2023/09/26 04:01:59;;;;;;;2.88;1.70;;;;;;;11.69;71.17;93362.22;2028956;70;20160;-73
2023/09/26 04:04:25;;;;;;;7.45;1.80;;;;;;;11.71;70.92;93353.16;2029689;70;20141;-73
2023/09/26 04:06:51;;;;;;;2.30;1.60;;;;;;;11.70;70.49;93349.59;2029474;70;20182;-74
2023/09/26 04:09:16;;;;;;;4.13;2.05;;;;;;;11.69;70.69;93353.03;2029230;70;20133;-74
2023/09/26 04:11:42;;;;;;;3.60;1.75;;;;;;;11.68;71.56;93357.16;2029039;70;20159;-74
2023/09/26 04:14:09;;;;;;;4.75;1.80;;;;;;;11.58;71.72;93345.94;2029744;70;20136;-74
2023/09/26 04:16:35;;;;;;;7.22;2.13;;;;;;;11.64;71.44;93349.19;2029531;70;20141;-73
2023/09/26 04:19:00;;;;;;;3.83;1.58;;;;;;;11.61;71.58;93358.84;2029640;70;20168;-73
2023/09/26 04:21:26;;;;;;;4.10;2.00;;;;;;;11.61;71.12;93349.66;2029590;70;20592;-74
2023/09/26 04:23:51;;;;;;;6.63;2.00;;;;;;;11.56;71.01;93351.47;2029803;70;20149;-74
2023/09/26 04:26:17;;;;;;;2.72;1.60;;;;;;;11.65;71.16;93349.94;2029676;70;20156;-74
2023/09/26 04:28:47;;;;;;;2.20;1.60;;;;;;;11.68;71.17;93346.66;2029480;70;20540;-74
2023/09/26 04:31:18;;;;;;;4.35;2.90;;;;;;;11.41;72.17;93340.56;2029680;70;20148;-74
2023/09/26 04:33:48;;;;;;;7.65;2.47;;;;;;;11.53;71.83;93351.94;2029548;70;20612;-73
2023/09/26 04:36:15;;;;;;;4.22;2.13;;;;;;;11.59;70.84;93347.44;2029384;70;20155;-74
2023/09/26 04:38:40;;;;;;;5.30;1.80;;;;;;;11.46;70.67;93350.78;2029647;70;20244;-74
2023/09/26 04:41:06;;;;;;;3.75;2.20;;;;;;;11.50;70.78;93347.47;2029587;70;20608;-74
2023/09/26 04:43:32;;;;;;;6.00;2.13;;;;;;;11.45;70.39;93350.06;2029342;70;20149;-73
2023/09/26 04:45:58;;;;;;;3.47;1.95;;;;;;;11.39;71.04;93341.16;2029617;70;20125;-74
2023/09/26 04:48:24;;;;;;;6.55;2.00;;;;;;;11.50;70.30;93353.88;2029637;70;20176;-74
2023/09/26 04:50:49;;;;;;;3.42;1.98;;;;;;;11.63;70.54;93352.59;2029128;70;20144;-74
2023/09/26 04:53:15;;;;;;;3.85;1.98;;;;;;;11.39;71.61;93355.25;2029774;70;20229;-74
2023/09/26 04:55:44;;;;;;;3.20;2.00;;;;;;;11.50;70.95;93353.88;2029536;70;20141;-73
2023/09/26 04:58:10;;;;;;;3.97;1.85;;;;;;;11.53;71.36;93349.84;2029199;70;20152;-73
2023/09/26 05:00:39;;;;;;;3.22;1.92;;;;;;;11.60;70.37;93354.56;2029724;70;20155;-73
2023/09/26 05:03:05;;;;;;;6.88;3.00;;;;;;;11.38;71.51;93359.41;2030104;70;20148;-73
2023/09/26 05:05:30;;;;;;;4.50;2.20;;;;;;;11.39;71.49;93357.34;2029690;70;20292;-73
2023/09/26 05:07:56;;;;;;;4.38;2.10;;;;;;;11.55;70.90;93361.28;2029404;70;20149;-73
2023/09/26 05:10:22;;;;;;;4.37;1.80;;;;;;;11.54;69.84;93362.59;2029568;70;20685;-72
2023/09/26 05:12:47;;;;;;;5.15;2.25;;;;;;;11.53;70.12;93363.94;2029505;70;20520;-73
2023/09/26 05:15:15;;;;;;;4.70;2.03;;;;;;;11.53;70.68;93369.56;2029361;70;20229;-72
2023/09/26 05:17:42;;;;;;;4.22;1.90;;;;;;;11.43;72.05;93368.91;2029710;70;20148;-73
2023/09/26 05:20:10;;;;;;;4.60;2.30;;;;;;;11.55;70.01;93363.34;2029583;70;20224;-73
2023/09/26 05:22:41;;;;;;;5.88;2.03;;;;;;;11.51;70.72;93371.53;2029426;70;20239;-73
2023/09/26 05:25:07;;;;;;;4.47;2.05;;;;;;;11.51;70.70;93365.91;2028674;70;20165;-73
2023/09/26 05:27:33;;;;;;;3.25;2.00;;;;;;;11.43;71.04;93363.25;2029295;70;20687;-73
2023/09/26 05:29:59;;;;;;;7.65;1.98;;;;;;;11.54;71.74;93356.22;2029633;70;20223;-73
2023/09/26 05:32:25;;;;;;;4.80;2.20;;;;;;;11.50;71.53;93356.69;2028830;70;20159;-73
2023/09/26 05:34:52;;;;;;;5.53;2.13;;;;;;;11.59;70.95;93355.91;2029613;70;20689;-73
2023/09/26 05:37:17;;;;;;;5.30;2.17;;;;;;;11.65;70.84;93358.38;2029595;70;20152;-74
2023/09/26 05:39:43;;;;;;;5.07;1.90;;;;;;;11.59;71.40;93349.50;2029430;70;20179;-74
2023/09/26 05:42:10;;;;;;;6.70;2.20;;;;;;;11.66;70.44;93359.88;2028593;70;20267;-73
2023/09/26 05:44:39;;;;;;;6.20;2.20;;;;;;;11.60;70.91;93351.75;2029208;70;20167;-73
2023/09/26 05:47:04;;;;;;;7.72;2.22;;;;;;;11.60;71.01;93353.81;2029401;70;20157;-74
2023/09/26 05:49:30;;;;;;;3.22;2.00;;;;;;;11.44;70.70;93340.09;2029356;70;20163;-74
2023/09/26 05:51:56;;;;;;;4.72;2.20;;;;;;;11.67;70.58;93355.69;2029163;70;20153;-74
2023/09/26 05:54:21;;;;;;;4.07;2.10;;;;;;;11.59;71.32;93350.28;2028797;70;20145;-74
2023/09/26 05:56:47;;;;;;;8.63;5.05;;;;;;;11.48;71.22;93353.72;2029523;70;20141;-75
2023/09/26 05:59:12;;;;;;;7.68;4.20;;;;;;;11.62;69.01;93365.22;2029699;70;20691;-74
2023/09/26 06:01:38;;;;;;;3.85;2.40;;;;;;;11.66;70.05;93354.97;2029666;70;20565;-73
2023/09/26 06:04:04;;;;;;;4.10;2.10;;;;;;;11.62;70.77;93357.50;2030430;70;20516;-74
2023/09/26 06:06:34;;;;;;;2.78;1.77;;;;;;;11.66;70.56;93352.13;2030197;70;20244;-74
2023/09/26 06:08:59;;;;;;;3.40;2.15;;;;;;;11.62;70.69;93363.16;2030178;70;20148;-74
2023/09/26 06:11:25;;;;;;;5.03;2.60;;;;;;;11.55;70.41;93354.91;2030098;70;20197;-74
2023/09/26 06:13:52;;;;;;;4.53;2.40;;;;;;;11.69;69.66;93350.94;2029327;70;20689;-74
2023/09/26 06:16:19;;;;;;;4.68;2.00;;;;;;;11.75;70.91;93355.50;2030319;70;20404;-75
2023/09/26 06:18:45;;;;;;;4.93;1.92;;;;;;;11.70;71.18;93355.22;2030266;70;20690;-75
2023/09/26 06:21:13;;;;;;;4.97;2.10;;;;;;;11.78;70.01;93357.88;2030066;70;20144;-74
2023/09/26 06:23:38;;;;;;;3.58;2.08;;;;;;;11.62;71.77;93351.13;2029478;70;20137;-74
2023/09/26 06:26:04;;;;;;;3.92;2.00;;;;;;;11.80;71.05;93357.25;2030149;70;20137;-72
2023/09/26 06:28:30;;;;;;;3.22;1.90;;;;;;;11.81;69.49;93353.81;2029936;70;20225;-73
2023/09/26 06:30:56;;;;;;;4.40;2.30;;;;;;;11.77;70.29;93355.63;2029808;70;20614;-73
2023/09/26 06:33:21;;;;;;;9.18;2.42;;;;;;;11.78;71.74;93357.13;2029998;70;20173;-73
2023/09/26 06:35:47;;;;;;;6.88;2.92;;;;;;;11.79;70.13;93355.78;2029874;70;20176;-73
2023/09/26 06:38:13;;;;;;;5.75;3.30;;;;;;;11.75;70.21;93359.06;2029788;70;20144;-74
2023/09/26 06:40:39;;;;;;;4.57;3.20;;;;;;;11.75;69.01;93344.97;2030049;70;20152;-73
2023/09/26 06:43:05;;;;;;;9.50;4.45;;;;;;;11.46;71.08;93345.16;2029885;70;20213;-72
2023/09/26 06:45:30;;;;;;;7.13;4.18;;;;;;;11.59;70.72;93339.00;2029001;70;20152;-73
2023/09/26 06:47:56;;;;;;;7.88;3.88;;;;;;;11.65;70.29;93333.75;2029692;70;20170;-73
2023/09/26 06:50:22;;;;;;;6.18;4.40;;;;;;;11.47;71.27;93321.25;2029921;70;20516;-73
2023/09/26 06:52:48;;;;;;;7.85;3.78;;;;;;;11.56;71.41;93334.53;2030053;70;20232;-74
2023/09/26 06:55:14;;;;;;;8.05;3.65;;;;;;;11.69;69.92;93330.47;2029774;70;20190;-73
2023/09/26 06:57:40;;;;;;;6.07;3.55;;;;;;;11.57;70.86;93338.84;2029886;70;20169;-74
2023/09/26 07:00:13;;;;;;;7.85;3.20;;;;;;;11.59;70.68;93329.75;2029971;70;20513;-73
2023/09/26 07:02:42;;;;;;;4.32;2.83;;;;;;;11.75;71.55;93336.50;2029686;70;20144;-73
2023/09/26 07:05:09;;;;;;;5.95;2.75;;;;;;;11.70;70.86;93329.84;2029555;70;20149;-73
2023/09/26 07:07:35;;;;;;;5.82;2.50;;;;;;;11.85;70.48;93331.56;2029792;70;20141;-74
2023/09/26 07:10:03;;;;;;;3.78;2.35;;;;;;;11.89;70.29;93334.66;2029604;70;20623;-73
2023/09/26 07:12:30;;;;;;;5.70;2.80;;;;;;;11.93;70.06;93332.09;2029088;70;20157;-74
2023/09/26 07:14:56;;;;;;;4.32;2.70;;;;;;;11.84;70.17;93330.09;2029951;70;20148;-75
2023/09/26 07:17:22;;;;;;;5.38;2.70;;;;;;;11.86;70.23;93338.66;2029491;70;20155;-73
2023/09/26 07:19:51;;;;;;;6.47;2.90;;;;;;;11.90;69.55;93326.91;2029430;70;20168;-74
2023/09/26 07:22:17;;;;;;;5.70;2.90;;;;;;;11.99;68.14;93320.47;2028891;70;20160;-74
2023/09/26 07:24:47;;;;;;;6.68;3.05;;;;;;;11.98;68.85;93318.25;2029547;70;20155;-74
2023/09/26 07:27:13;;;;;;;4.20;2.90;;;;;;;11.84;69.79;93321.63;2029623;70;20725;-74
2023/09/26 07:29:39;;;;;;;7.15;2.58;;;;;;;12.39;68.70;93322.34;2029042;70;20133;-74
2023/09/26 07:32:04;;;;;;;5.32;2.60;;;;;;;12.66;70.29;93324.75;2029531;70;20152;-74
2023/09/26 07:34:30;;;;;;;5.07;2.70;;;;;;;13.17;69.02;93327.91;2029274;70;20153;-75
2023/09/26 07:36:56;;;;;;;4.32;2.75;;;;;;;13.41;67.42;93325.09;2029278;70;20148;-74
2023/09/26 07:39:21;;;;;;;5.03;2.30;;;;;;;13.60;67.39;93329.75;2029045;70;20229;-74
2023/09/26 07:41:47;;;;;;;4.00;2.60;;;;;;;13.61;66.14;93317.09;2029369;70;20240;-74
2023/09/26 07:44:13;;;;;;;4.32;2.45;;;;;;;14.12;65.14;93317.97;2029675;70;20153;-73
2023/09/26 07:46:38;;;;;;;4.78;2.70;;;;;;;14.14;64.85;93317.34;2029420;70;20205;-74
2023/09/26 07:49:04;;;;;;;5.22;2.38;;;;;;;14.30;65.72;93318.28;2029042;70;20149;-74
2023/09/26 07:51:31;;;;;;;4.65;2.85;;;;;;;14.97;63.28;93319.19;2029150;70;20244;-74
2023/09/26 07:53:57;;;;;;;4.85;2.45;;;;;;;15.43;62.66;93308.13;2028593;70;20604;-72
2023/09/26 07:56:23;;;;;;;4.45;2.50;;;;;;;15.40;61.44;93300.88;2029533;70;20163;-74
2023/09/26 07:58:48;;;;;;;7.20;2.83;;;;;;;16.10;62.65;93296.66;2029616;70;20229;-74
2023/09/26 08:01:14;;;;;;;6.13;3.22;;;;;;;15.77;62.85;93305.63;2025555;70;20176;-74
2023/09/26 08:03:41;;;;;;;4.75;2.35;;;;;;;16.73;60.14;93299.75;2025822;70;20148;-74
2023/09/26 08:06:07;;;;;;;4.05;2.30;;;;;;;16.74;59.99;93287.72;2031756;70;20144;-74
2023/09/26 08:08:33;;;;;;;3.80;2.30;;;;;;;16.92;59.68;93284.28;2032559;70;20217;-74
2023/09/26 08:11:28;;;;;;;5.47;2.33;;;;;;;16.85;58.77;93279.66;2032647;70;20768;-74
2023/09/26 08:13:55;;;;;;;2.58;2.00;;;;;;;17.56;57.28;93291.44;2032517;70;20209;-74
2023/09/26 08:16:22;;;;;;;3.67;2.42;;;;;;;18.07;57.13;93290.09;2032551;70;20144;-75
2023/09/26 08:18:50;;;;;;;4.93;3.38;;;;;;;17.62;57.10;93294.56;2032752;70;20168;-74
2023/09/26 08:21:16;;;;;;;6.35;2.88;;;;;;;18.08;57.81;93300.81;2032749;70;20152;-75
2023/09/26 08:23:42;;;;;;;4.78;2.92;;;;;;;18.20;56.26;93292.06;2032290;70;20179;-75
2023/09/26 08:26:12;;;;;;;6.13;2.95;;;;;;;18.48;56.45;93290.38;2032791;70;20156;-75
2023/09/26 08:28:38;;;;;;;6.00;2.83;;;;;;;18.78;55.33;93284.47;2032656;70;20174;-74
2023/09/26 08:31:07;;;;;;;4.68;3.03;;;;;;;19.01;53.69;93289.69;2032726;70;20172;-75
2023/09/26 08:33:34;;;;;;;7.03;2.67;;;;;;;19.49;54.30;93284.34;2032545;70;20183;-74
2023/09/26 08:36:00;;;;;;;3.70;2.80;;;;;;;19.14;52.48;93295.84;2032824;70;20205;-75
2023/09/26 08:38:27;;;;;;;3.55;2.45;;;;;;;19.64;52.05;93288.47;2032914;70;20149;-74
2023/09/26 08:40:57;;;;;;;4.22;2.58;;;;;;;19.71;52.90;93286.56;2032359;70;20158;-74
2023/09/26 08:43:24;;;;;;;3.08;2.17;;;;;;;20.04;51.06;93282.75;2033014;70;20176;-73
2023/09/26 08:45:50;;;;;;;5.85;2.40;;;;;;;20.74;49.40;93280.81;2032927;70;20132;-74
2023/09/26 08:48:16;;;;;;;3.72;2.00;;;;;;;20.94;49.16;93269.31;2033122;70;20160;-74
2023/09/26 08:50:42;;;;;;;2.90;1.90;;;;;;;21.00;48.19;93265.91;2032481;70;20611;-73
2023/09/26 08:53:08;;;;;;;3.75;2.00;;;;;;;20.98;46.35;93269.44;2031520;70;20287;-74
2023/09/26 08:55:38;;;;;;;5.03;2.40;;;;;;;21.54;46.25;93266.09;2031935;70;20148;-74
2023/09/26 08:58:05;;;;;;;5.82;2.20;;;;;;;21.80;46.33;93234.59;2032253;70;20186;-75
2023/09/26 09:00:31;;;;;;;2.45;1.85;;;;;;;22.03;46.87;93253.84;2032594;70;20227;-73
2023/09/26 09:02:56;;;;;;;4.35;2.40;;;;;;;22.63;43.92;93249.66;2030288;70;20251;-75
2023/09/26 09:05:23;;;;;;;4.85;2.15;;;;;;;22.12;45.39;93246.22;2031678;70;20152;-75
2023/09/26 09:07:49;;;;;;;5.47;2.30;;;;;;;21.75;45.58;93245.22;2028324;70;20160;-76
2023/09/26 09:10:18;;;;;;;2.33;1.85;;;;;;;22.44;45.58;93252.06;2029243;70;20196;-75
2023/09/26 09:12:47;;;;;;;2.53;1.90;;;;;;;23.01;43.98;93249.91;2029579;70;20160;-75
2023/09/26 09:15:15;;;;;;;3.63;2.08;;;;;;;22.96;42.75;93251.94;2029734;70;20211;-76
2023/09/26 09:17:42;;;;;;;6.97;1.63;;;;;;;23.67;43.03;93243.44;2030913;70;20152;-75
2023/09/26 09:20:10;;;;;;;3.95;2.10;;;;;;;23.15;40.43;93238.72;2032634;70;20145;-76
2023/09/26 09:22:36;;;;;;;6.90;1.90;;;;;;;23.51;41.66;93203.59;2032478;70;20152;-76
2023/09/26 09:25:02;;;;;;;3.80;2.05;;;;;;;23.53;39.42;93235.94;2032542;70;20144;-76
2023/09/26 09:27:34;;;;;;;2.03;1.65;;;;;;;24.57;40.86;93231.50;2031911;70;20136;-76
2023/09/26 09:30:15;;;;;;;3.75;2.10;;;;;;;24.49;40.43;93220.56;2032211;70;20149;-76
2023/09/26 09:32:42;;;;;;;4.32;1.77;;;;;;;24.46;39.75;93226.97;2032401;70;20140;-77
2023/09/26 09:35:14;;;;;;;3.13;1.98;;;;;;;25.07;40.26;93222.22;2032422;70;20190;-76
2023/09/26 09:37:47;;;;;;;9.65;1.90;;;;;;;24.48;37.37;93216.25;2032259;70;20197;-76
2023/09/26 09:40:22;;;;;;;3.03;1.58;;;;;;;25.01;37.73;93214.19;2032513;70;20561;-76
2023/09/26 09:42:49;;;;;;;2.63;1.77;;;;;;;26.07;38.36;93203.34;2032234;70;20305;-77
2023/09/26 09:45:15;;;;;;;3.63;1.83;;;;;;;26.39;37.46;93216.66;2032360;70;20221;-77
2023/09/26 09:47:43;;;;;;;2.55;1.63;;;;;;;26.95;36.97;93213.56;2032391;70;20167;-75
2023/09/26 09:50:09;;;;;;;1.92;1.60;;;;;;;27.50;35.32;93213.25;2032428;70;20243;-77
2023/09/26 09:52:38;;;;;;;3.17;1.73;;;;;;;28.03;36.25;93220.00;2032267;70;20166;-78
2023/09/26 09:55:05;;;;;;;3.97;1.90;;;;;;;27.23;36.14;93206.56;2031487;70;20200;-76
2023/09/26 09:57:33;;;;;;;4.68;1.90;;;;;;;27.99;34.81;93219.25;2032455;70;20150;-78
2023/09/26 10:00:01;;;;;;;2.60;1.77;;;;;;;28.71;35.16;93208.59;2032506;70;20226;-76
2023/09/26 10:02:26;;;;;;;4.03;1.90;;;;;;;28.82;34.57;93210.78;2032424;70;20144;-77
2023/09/26 10:04:55;;;;;;;3.03;1.67;;;;;;;28.97;33.85;93205.72;2031983;70;20183;-77
2023/09/26 10:07:26;;;;;;;2.65;1.52;;;;;;;28.91;32.98;93207.84;2032592;70;20156;-77
2023/09/26 10:09:54;;;;;;;2.33;1.77;;;;;;;29.71;32.93;93202.72;2032737;70;20535;-77
2023/09/26 10:12:21;;;;;;;3.60;1.70;;;;;;;30.38;31.50;93203.19;2031925;70;20354;-78
2023/09/26 10:14:46;;;;;;;2.75;1.50;;;;;;;30.55;30.90;93200.16;2032114;70;20209;-78
2023/09/26 10:17:14;;;;;;;1.98;1.50;;;;;;;30.13;31.35;93193.13;2032454;70;20144;-79
2023/09/26 10:19:40;;;;;;;1.95;1.63;;;;;;;30.82;30.13;93194.91;2032484;70;20149;-78
2023/09/26 10:22:16;;;;;;;2.38;1.60;;;;;;;31.53;30.67;93199.41;2032595;70;20216;-78
2023/09/26 10:24:50;;;;;;;4.13;1.73;;;;;;;31.77;29.11;93190.41;2032699;70;20227;-78
2023/09/26 10:27:23;;;;;;;2.05;1.55;;;;;;;31.47;28.51;93185.63;2032443;70;20152;-78
2023/09/26 10:29:52;;;;;;;2.55;1.73;;;;;;;32.78;28.63;93193.47;2032472;70;20117;-76
2023/09/26 10:32:47;;;;;;;2.20;1.73;;;;;;;33.50;27.81;93190.16;2031868;70;20687;-76
2023/09/26 10:35:12;;;;;;;2.15;1.67;;;;;;;31.71;27.41;93192.66;2022206;71;20191;-77
2023/09/26 10:37:39;;;;;;;3.25;1.60;;;;;;;32.29;26.62;93194.16;2021929;71;20142;-77
2023/09/26 10:40:16;;;;;;;3.47;1.33;;;;;;;34.45;25.55;93194.84;2019549;71;20169;-76
2023/09/26 10:42:45;;;;;;;2.10;1.40;;;;;;;35.29;26.15;93196.63;2021944;71;20192;-76
2023/09/26 10:45:12;;;;;;;2.15;1.60;;;;;;;35.23;24.49;93194.53;2022017;71;20228;-77
2023/09/26 10:47:40;;;;;;;2.53;1.65;;;;;;;35.45;25.44;93187.41;2019341;71;20609;-77
2023/09/26 10:50:13;;;;;;;2.42;1.38;;;;;;;36.69;23.53;93180.31;2022393;71;20588;-76
2023/09/26 10:52:48;;;;;;;2.10;1.63;;;;;;;34.94;24.94;93176.94;2022427;71;20161;-76
2023/09/26 10:55:19;;;;;;;1.98;1.50;;;;;;;37.80;22.72;93180.41;2019875;71;20661;-75
2023/09/26 10:57:52;;;;;;;2.90;1.35;;;;;;;39.02;21.97;93172.97;2021820;71;20501;-75
2023/09/26 11:00:19;;;;;;;3.38;1.40;;;;;;;37.47;22.55;93172.00;2022166;71;20749;-76
2023/09/26 11:02:48;;;;;;;2.22;1.48;;;;;;;36.67;22.90;93165.75;2022351;71;20144;-76
2023/09/26 11:05:15;;;;;;;2.92;1.27;;;;;;;40.85;21.39;93166.56;2022145;71;20713;-76
2023/09/26 11:07:44;;;;;;;2.15;1.33;;;;;;;41.23;21.38;93166.25;2021672;71;20194;-75
2023/09/26 11:10:17;;;;;;;2.05;1.52;;;;;;;41.67;20.54;93162.63;2021949;71;20232;-77
2023/09/26 11:12:43;;;;;;;1.58;1.30;;;;;;;42.17;20.87;93158.59;2032059;70;20225;-77
2023/09/26 11:15:09;;;;;;;1.75;1.60;;;;;;;42.46;19.96;93157.78;2031998;70;20240;-77
2023/09/26 11:17:36;;;;;;;3.20;1.30;;;;;;;44.69;17.84;93163.47;2032763;70;20612;-76
2023/09/26 11:20:06;;;;;;;3.92;1.50;;;;;;;41.50;18.61;93147.94;2032789;70;20148;-76
2023/09/26 11:22:50;;;;;;;1.48;1.38;;;;;;;43.72;18.30;93150.72;2032978;70;20129;-76
2023/09/26 11:25:16;;;;;;;1.52;1.30;;;;;;;44.72;16.81;93150.63;2032580;70;20132;-76
2023/09/26 11:27:48;;;;;;;1.50;1.40;;;;;;;45.71;17.26;93145.00;2032352;70;20217;-75
2023/09/26 11:30:18;;;;;;;1.88;1.40;;;;;;;46.48;16.70;93144.97;2032898;70;20179;-76
2023/09/26 11:32:50;;;;;;;1.90;1.20;;;;;;;47.13;16.47;93152.25;2032207;70;20159;-75
2023/09/26 11:35:19;;;;;;;2.35;1.30;;;;;;;48.11;16.27;93142.75;2032353;70;20584;-76